createdAt,value
2024-01-11T00:00:33.693Z,18.83
2024-01-11T00:03:05.277Z,20.20
2024-01-11T00:05:32.113Z,19.52
2024-01-11T00:07:58.831Z,19.80
2024-01-11T00:10:25.676Z,18.75
2024-01-11T00:12:52.512Z,19.20
2024-01-11T00:15:19.226Z,19.13
2024-01-11T00:17:46.258Z,22.00
2024-01-11T00:20:13.190Z,30.27
2024-01-11T00:22:40.032Z,27.38
2024-01-11T00:25:06.907Z,21.77
2024-01-11T00:27:33.631Z,18.80
2024-01-11T00:30:00.341Z,19.48
2024-01-11T00:32:27.240Z,18.70
2024-01-11T00:34:54.105Z,18.20
2024-01-11T00:37:20.941Z,17.77
2024-01-11T00:39:47.645Z,20.20
2024-01-11T00:42:14.318Z,18.80
2024-01-11T00:44:41.790Z,19.13
2024-01-11T00:47:08.807Z,19.73
2024-01-11T00:49:35.807Z,19.53
2024-01-11T00:52:02.593Z,18.58
2024-01-11T00:54:29.331Z,18.92
2024-01-11T00:56:55.938Z,19.00
2024-01-11T00:59:22.695Z,19.75
2024-01-11T01:01:50.032Z,18.87
2024-01-11T01:04:16.933Z,19.05
2024-01-11T01:06:44.367Z,21.02
2024-01-11T01:09:11.146Z,18.25
2024-01-11T01:11:38.096Z,18.85
2024-01-11T01:14:04.768Z,20.13
2024-01-11T01:16:31.456Z,20.45
2024-01-11T01:18:58.365Z,19.42
2024-01-11T01:21:25.081Z,20.48
2024-01-11T01:23:51.744Z,18.83
2024-01-11T01:26:18.531Z,19.70
2024-01-11T01:28:45.193Z,18.25
2024-01-11T01:31:11.982Z,21.08
2024-01-11T01:33:38.831Z,19.98
2024-01-11T01:36:10.173Z,20.27
2024-01-11T01:38:36.886Z,19.90
2024-01-11T01:41:03.984Z,18.90
2024-01-11T01:43:30.672Z,18.85
2024-01-11T01:45:57.830Z,20.73
2024-01-11T01:48:24.755Z,18.60
2024-01-11T01:50:51.829Z,19.17
2024-01-11T01:53:23.220Z,20.10
2024-01-11T01:55:51.110Z,21.23
2024-01-11T01:58:19.419Z,20.50
2024-01-11T02:00:47.072Z,20.17
2024-01-11T02:03:15.998Z,17.63
2024-01-11T02:05:43.863Z,19.30
2024-01-11T02:08:16.664Z,20.35
2024-01-11T02:10:44.183Z,19.30
2024-01-11T02:13:11.285Z,18.40
2024-01-11T02:15:38.139Z,19.70
2024-01-11T02:18:05.142Z,19.92
2024-01-11T02:20:32.800Z,19.30
2024-01-11T02:23:06.490Z,17.88
2024-01-11T02:25:33.253Z,19.33
2024-01-11T02:27:59.988Z,19.20
2024-01-11T02:30:26.716Z,20.27
2024-01-11T02:32:54.639Z,19.20
2024-01-11T02:35:22.335Z,18.77
2024-01-11T02:37:49.857Z,18.52
2024-01-11T02:40:16.651Z,18.37
2024-01-11T02:42:43.466Z,18.92
2024-01-11T02:45:12.310Z,18.92
2024-01-11T02:47:39.142Z,20.45
2024-01-11T02:50:09.817Z,19.40
2024-01-11T02:52:36.640Z,18.57
2024-01-11T02:55:03.521Z,17.83
2024-01-11T02:57:30.343Z,19.63
2024-01-11T02:59:56.952Z,18.88
2024-01-11T03:02:23.900Z,18.35
2024-01-11T03:04:50.797Z,19.83
2024-01-11T03:07:17.535Z,19.13
2024-01-11T03:09:44.302Z,18.90
2024-01-11T03:12:10.936Z,17.58
2024-01-11T03:14:37.776Z,18.98
2024-01-11T03:17:04.767Z,19.10
2024-01-11T03:19:31.522Z,19.08
2024-01-11T03:21:58.712Z,18.20
2024-01-11T03:24:25.327Z,17.45
2024-01-11T03:26:51.997Z,18.77
2024-01-11T03:29:18.735Z,17.23
2024-01-11T03:31:46.584Z,17.80
2024-01-11T03:34:13.683Z,17.85
2024-01-11T03:36:41.386Z,17.55
2024-01-11T03:39:08.129Z,15.48
2024-01-11T03:41:35.081Z,17.43
2024-01-11T03:44:02.094Z,18.50
2024-01-11T03:46:29.035Z,16.90
2024-01-11T03:48:57.307Z,16.80
2024-01-11T03:51:24.048Z,16.77
2024-01-11T03:53:50.930Z,16.27
2024-01-11T03:56:17.822Z,16.10
2024-01-11T03:58:46.478Z,16.52
2024-01-11T04:01:13.346Z,16.27
2024-01-11T04:03:40.186Z,15.60
2024-01-11T04:06:07.852Z,14.40
2024-01-11T04:08:34.980Z,15.80
2024-01-11T04:11:07.845Z,15.88
2024-01-11T04:13:34.664Z,15.77
2024-01-11T04:16:05.965Z,16.48
2024-01-11T04:18:32.650Z,14.13
2024-01-11T04:20:59.501Z,15.40
2024-01-11T04:23:26.250Z,15.00
2024-01-11T04:25:53.105Z,15.30
2024-01-11T04:28:19.832Z,17.02
2024-01-11T04:30:46.534Z,16.90
2024-01-11T04:33:13.385Z,15.95
2024-01-11T04:35:40.123Z,16.95
2024-01-11T04:38:06.844Z,16.00
2024-01-11T04:40:33.565Z,15.90
2024-01-11T04:43:03.038Z,15.77
2024-01-11T04:45:29.686Z,15.52
2024-01-11T04:47:56.462Z,17.27
2024-01-11T04:50:23.624Z,16.27
2024-01-11T04:52:50.489Z,15.35
2024-01-11T04:55:17.092Z,14.73
2024-01-11T04:57:43.926Z,14.15
2024-01-11T05:00:11.464Z,15.95
2024-01-11T05:02:38.454Z,15.32
2024-01-11T05:05:05.620Z,14.38
2024-01-11T05:07:32.909Z,14.30
2024-01-11T05:10:00.053Z,16.27
2024-01-11T05:12:26.659Z,17.17
2024-01-11T05:14:53.313Z,15.15
2024-01-11T05:17:19.994Z,15.98
2024-01-11T05:19:46.701Z,15.83
2024-01-11T05:22:13.499Z,15.75
2024-01-11T05:24:40.159Z,14.93
2024-01-11T05:27:06.826Z,14.93
2024-01-11T05:29:33.660Z,16.20
2024-01-11T05:32:00.632Z,16.53
2024-01-11T05:34:27.481Z,16.60
2024-01-11T05:36:54.086Z,15.32
2024-01-11T05:39:20.898Z,13.85
2024-01-11T05:41:50.970Z,15.13
2024-01-11T05:44:17.846Z,15.63
2024-01-11T05:46:45.543Z,15.57
2024-01-11T05:49:12.556Z,16.27
2024-01-11T05:51:39.477Z,15.10
2024-01-11T05:54:06.736Z,16.15
2024-01-11T05:56:34.128Z,15.03
2024-01-11T05:59:01.368Z,17.40
2024-01-11T06:01:28.349Z,17.70
2024-01-11T06:03:55.110Z,16.50
2024-01-11T06:06:22.389Z,16.02
2024-01-11T06:08:49.913Z,16.17
2024-01-11T06:11:16.653Z,15.80
2024-01-11T06:13:43.303Z,16.63
2024-01-11T06:16:13.602Z,15.30
2024-01-11T06:18:40.725Z,14.93
2024-01-11T06:21:07.468Z,15.23
2024-01-11T06:23:34.279Z,14.93
2024-01-11T06:26:01.155Z,15.18
2024-01-11T06:28:27.905Z,15.20
2024-01-11T06:30:54.986Z,15.70
2024-01-11T06:33:22.089Z,14.07
2024-01-11T06:35:49.063Z,14.77
2024-01-11T06:38:15.762Z,16.48
2024-01-11T06:40:42.789Z,13.98
2024-01-11T06:43:09.418Z,14.55
2024-01-11T06:45:36.436Z,14.63
2024-01-11T06:48:03.503Z,26.25
2024-01-11T06:50:30.426Z,22.52
2024-01-11T06:52:57.264Z,19.10
2024-01-11T06:55:24.176Z,18.70
2024-01-11T06:57:51.002Z,18.70
2024-01-11T07:00:17.768Z,19.23
2024-01-11T07:02:44.507Z,17.05
2024-01-11T07:05:11.287Z,17.05
2024-01-11T07:07:38.300Z,16.35
2024-01-11T07:10:06.850Z,15.97
2024-01-11T07:12:34.473Z,14.90
2024-01-11T07:15:01.126Z,16.85
2024-01-11T07:17:28.163Z,15.75
2024-01-11T07:19:54.930Z,16.23
2024-01-11T07:22:21.539Z,15.83
2024-01-11T07:24:48.183Z,15.77
2024-01-11T07:27:15.744Z,14.85
2024-01-11T07:29:42.648Z,17.20
2024-01-11T07:32:09.659Z,16.05
2024-01-11T07:34:36.510Z,17.93
2024-01-11T07:37:03.486Z,17.25
2024-01-11T07:39:32.261Z,17.70
2024-01-11T07:41:59.024Z,17.13
2024-01-11T07:44:25.784Z,18.92
2024-01-11T07:46:54.541Z,22.43
2024-01-11T07:49:22.930Z,21.50
2024-01-11T07:51:50.427Z,23.35
2024-01-11T07:54:17.341Z,21.45
2024-01-11T07:56:44.387Z,24.00
2024-01-11T07:59:16.185Z,24.93
2024-01-11T08:01:43.405Z,28.88
2024-01-11T08:04:10.142Z,27.80
2024-01-11T08:06:36.877Z,23.20
2024-01-11T08:09:06.069Z,22.45
2024-01-11T08:11:36.571Z,22.33
2024-01-11T08:14:07.227Z,23.70
2024-01-11T08:16:37.511Z,22.85
2024-01-11T08:19:04.475Z,20.88
2024-01-11T08:21:31.370Z,25.45
2024-01-11T08:24:02.578Z,30.30
2024-01-11T08:26:31.746Z,22.00
2024-01-11T08:28:58.536Z,25.80
2024-01-11T08:31:25.726Z,20.90
2024-01-11T08:33:52.807Z,26.58
2024-01-11T08:36:19.539Z,22.90
2024-01-11T08:38:46.341Z,24.92
2024-01-11T08:41:13.161Z,23.13
2024-01-11T08:43:40.838Z,27.48
2024-01-11T08:46:07.553Z,23.40
2024-01-11T08:48:34.384Z,21.03
2024-01-11T08:51:01.439Z,18.67
2024-01-11T08:53:28.290Z,19.98
2024-01-11T08:55:54.899Z,19.73
2024-01-11T08:58:21.513Z,19.88
2024-01-11T09:00:48.257Z,20.53
2024-01-11T09:03:16.865Z,22.13
2024-01-11T09:05:43.880Z,21.30
2024-01-11T09:08:10.628Z,21.50
2024-01-11T09:10:37.326Z,20.70
2024-01-11T09:13:04.154Z,21.47
2024-01-11T09:15:31.060Z,23.92
2024-01-11T09:17:57.906Z,23.05
2024-01-11T09:20:24.752Z,22.63
2024-01-11T09:22:51.359Z,20.20
2024-01-11T09:25:18.078Z,20.90
2024-01-11T09:27:44.727Z,21.75
2024-01-11T09:30:11.935Z,23.02
2024-01-11T09:32:38.772Z,22.98
2024-01-11T09:35:06.259Z,19.95
2024-01-11T09:37:33.623Z,20.03
2024-01-11T09:40:02.095Z,21.40
2024-01-11T09:42:29.473Z,21.70
2024-01-11T09:44:57.806Z,21.77
2024-01-11T09:47:26.566Z,22.20
2024-01-11T09:49:56.875Z,20.57
2024-01-11T09:52:26.912Z,21.95
2024-01-11T09:54:53.693Z,21.48
2024-01-11T09:57:36.146Z,21.90
2024-01-11T10:00:08.749Z,23.05
2024-01-11T10:02:35.549Z,22.73
2024-01-11T10:05:02.384Z,21.42
2024-01-11T10:07:31.872Z,21.70
2024-01-11T10:09:59.458Z,24.70
2024-01-11T10:12:26.856Z,22.63
2024-01-11T10:14:54.079Z,22.20
2024-01-11T10:17:24.299Z,23.02
2024-01-11T10:19:54.626Z,22.63
2024-01-11T10:22:23.223Z,22.02
2024-01-11T10:24:51.762Z,22.25
2024-01-11T10:27:18.429Z,22.47
2024-01-11T10:29:46.575Z,21.85
2024-01-11T10:32:13.304Z,22.67
2024-01-11T10:34:42.550Z,20.65
2024-01-11T10:37:11.776Z,20.85
2024-01-11T10:39:39.719Z,21.07
2024-01-11T10:42:09.117Z,21.67
2024-01-11T10:44:42.017Z,20.08
2024-01-11T10:47:10.928Z,20.60
2024-01-11T10:49:42.374Z,21.45
2024-01-11T10:52:10.104Z,22.27
2024-01-11T10:54:38.243Z,21.80
2024-01-11T10:57:06.820Z,24.13
2024-01-11T10:59:35.350Z,21.80
2024-01-11T11:02:07.853Z,22.08
2024-01-11T11:04:36.989Z,21.00
2024-01-11T11:07:04.535Z,21.48
2024-01-11T11:09:34.073Z,20.13
2024-01-11T11:12:02.204Z,21.92
2024-01-11T11:14:29.815Z,21.77
2024-01-11T11:16:56.637Z,22.07
2024-01-11T11:19:23.764Z,22.70
2024-01-11T11:21:52.081Z,21.55
2024-01-11T11:24:18.797Z,21.85
2024-01-11T11:26:45.557Z,21.13
2024-01-11T11:29:12.358Z,21.20
2024-01-11T11:31:43.491Z,21.17
2024-01-11T11:34:13.870Z,20.15
2024-01-11T11:36:48.029Z,21.90
2024-01-11T11:39:14.944Z,21.17
2024-01-11T11:41:44.311Z,20.97
2024-01-11T11:44:15.379Z,20.92
2024-01-11T11:46:42.389Z,22.35
2024-01-11T11:49:11.413Z,21.35
2024-01-11T11:51:40.510Z,20.92
2024-01-11T11:54:11.077Z,20.87
2024-01-11T11:56:38.231Z,21.75
2024-01-11T11:59:05.139Z,21.88
2024-01-11T12:01:33.642Z,20.15
2024-01-11T12:04:00.355Z,21.30
2024-01-11T12:06:29.262Z,21.83
2024-01-11T12:08:58.164Z,21.17
2024-01-11T12:11:25.786Z,21.90
2024-01-11T12:13:54.681Z,22.35
2024-01-11T12:16:22.246Z,23.15
2024-01-11T12:18:50.592Z,22.43
2024-01-11T12:21:18.082Z,21.27
2024-01-11T12:23:45.327Z,22.85
2024-01-11T12:26:16.578Z,21.17
2024-01-11T12:28:45.433Z,21.10
2024-01-11T12:31:14.135Z,20.47
2024-01-11T12:33:42.752Z,21.48
2024-01-11T12:36:10.307Z,22.00
2024-01-11T12:38:37.168Z,21.52
2024-01-11T12:41:05.451Z,21.67
2024-01-11T12:43:32.515Z,21.03
2024-01-11T12:45:59.495Z,22.05
2024-01-11T12:48:26.624Z,22.58
2024-01-11T12:51:05.808Z,22.33
2024-01-11T12:53:41.790Z,21.67
2024-01-11T12:56:12.894Z,20.80
2024-01-11T12:58:40.042Z,21.77
2024-01-11T13:01:11.987Z,21.00
2024-01-11T13:03:48.328Z,20.45
2024-01-11T13:06:16.703Z,21.00
2024-01-11T13:08:44.170Z,21.03
2024-01-11T13:11:10.907Z,20.70
2024-01-11T13:13:37.719Z,21.75
2024-01-11T13:16:07.680Z,21.58
2024-01-11T13:18:34.565Z,21.08
2024-01-11T13:21:01.399Z,21.50
2024-01-11T13:23:28.056Z,21.25
2024-01-11T13:25:54.813Z,21.35
2024-01-11T13:28:21.431Z,20.98
2024-01-11T13:30:50.547Z,22.50
2024-01-11T13:33:19.176Z,21.10
2024-01-11T13:35:47.225Z,20.83
2024-01-11T13:38:14.273Z,21.58
2024-01-11T13:40:41.790Z,20.67
2024-01-11T13:43:09.084Z,20.92
2024-01-11T13:45:38.986Z,20.37
2024-01-11T13:48:07.108Z,20.13
2024-01-11T13:50:34.865Z,20.60
2024-01-11T13:53:03.379Z,21.98
2024-01-11T13:55:39.375Z,19.70
2024-01-11T13:58:07.118Z,19.80
2024-01-11T14:00:33.936Z,21.02
2024-01-11T14:03:00.894Z,19.75
2024-01-11T14:05:27.845Z,20.08
2024-01-11T14:08:00.806Z,21.95
2024-01-11T14:10:28.650Z,19.30
2024-01-11T14:12:55.836Z,20.60
2024-01-11T14:15:22.634Z,22.63
2024-01-11T14:17:50.087Z,22.63
2024-01-11T14:20:18.356Z,22.77
2024-01-11T14:22:52.431Z,23.13
2024-01-11T14:25:21.182Z,23.92
2024-01-11T14:27:49.417Z,24.90
2024-01-11T14:30:16.319Z,25.85
2024-01-11T14:32:43.676Z,24.15
2024-01-11T14:35:11.653Z,35.93
2024-01-11T14:37:39.898Z,24.92
2024-01-11T14:40:12.010Z,24.33
2024-01-11T14:42:38.854Z,24.88
2024-01-11T14:45:06.821Z,25.45
2024-01-11T14:47:34.006Z,26.47
2024-01-11T14:50:01.307Z,25.13
2024-01-11T14:52:27.995Z,25.23
2024-01-11T14:54:54.790Z,25.92
2024-01-11T14:57:22.486Z,28.45
2024-01-11T14:59:49.334Z,26.47
2024-01-11T15:02:16.348Z,26.98
2024-01-11T15:04:43.786Z,25.90
2024-01-11T15:07:10.602Z,25.90
2024-01-11T15:09:40.247Z,26.33
2024-01-11T15:12:08.808Z,25.70
2024-01-11T15:14:35.562Z,25.75
2024-01-11T15:17:03.830Z,26.52
2024-01-11T15:19:31.049Z,26.05
2024-01-11T15:21:57.852Z,25.90
2024-01-11T15:24:24.422Z,25.60
2024-01-11T15:26:51.275Z,25.63
2024-01-11T15:29:18.462Z,26.98
2024-01-11T15:31:47.766Z,24.85
2024-01-11T15:34:16.195Z,25.48
2024-01-11T15:36:44.354Z,25.67
2024-01-11T15:41:42.375Z,26.60
2024-01-11T15:44:09.425Z,24.98
2024-01-11T15:46:36.329Z,28.63
2024-01-11T15:49:03.064Z,27.13
2024-01-11T15:51:30.310Z,26.70
2024-01-11T15:53:57.481Z,27.80
2024-01-11T15:56:24.134Z,29.38
2024-01-11T15:58:50.856Z,28.73
2024-01-11T16:01:17.514Z,26.80
2024-01-11T16:03:45.923Z,28.63
2024-01-11T16:06:12.878Z,27.42
2024-01-11T16:08:39.762Z,26.50
2024-01-11T16:11:06.477Z,26.88
2024-01-11T16:13:33.116Z,28.07
2024-01-11T16:16:00.674Z,27.67
2024-01-11T16:18:27.669Z,27.40
2024-01-11T16:20:55.971Z,27.50
2024-01-11T16:23:22.946Z,28.75
2024-01-11T16:25:50.132Z,26.90
2024-01-11T16:28:16.860Z,27.20
2024-01-11T16:30:43.736Z,26.50
2024-01-11T16:33:11.297Z,25.70
2024-01-11T16:35:45.094Z,25.95
2024-01-11T16:38:16.453Z,24.50
2024-01-11T16:40:43.227Z,26.08
2024-01-11T16:43:12.794Z,27.42
2024-01-11T16:45:40.499Z,27.08
2024-01-11T16:48:11.534Z,26.52
2024-01-11T16:50:38.584Z,26.37
2024-01-11T16:53:05.419Z,26.98
2024-01-11T16:55:33.197Z,27.00
2024-01-11T16:58:00.958Z,27.25
2024-01-11T17:00:29.101Z,27.08
2024-01-11T17:02:59.131Z,29.47
2024-01-11T17:05:26.154Z,27.35
2024-01-11T17:07:52.984Z,28.20
2024-01-11T17:10:19.577Z,32.90
2024-01-11T17:12:46.618Z,29.02
2024-01-11T17:15:15.155Z,32.37
2024-01-11T17:17:42.973Z,32.40
2024-01-11T17:20:11.767Z,31.58
2024-01-11T17:22:38.561Z,29.67
2024-01-11T17:25:05.492Z,33.33
2024-01-11T17:27:32.278Z,30.00
2024-01-11T17:29:59.059Z,29.15
2024-01-11T17:32:25.760Z,29.95
2024-01-11T17:34:57.063Z,30.58
2024-01-11T17:37:23.959Z,31.40
2024-01-11T17:39:51.466Z,31.03
2024-01-11T17:42:18.961Z,31.63
2024-01-11T17:44:45.923Z,33.65
2024-01-11T17:47:13.677Z,31.98
2024-01-11T17:49:43.054Z,31.92
2024-01-11T17:52:10.289Z,31.03
2024-01-11T17:54:37.063Z,30.42
2024-01-11T17:57:04.073Z,29.50
2024-01-11T17:59:30.841Z,30.15
2024-01-11T18:01:58.021Z,30.48
2024-01-11T18:04:24.838Z,32.80
2024-01-11T18:06:52.067Z,32.85
2024-01-11T18:09:18.957Z,33.13
2024-01-11T18:11:46.170Z,30.60
2024-01-11T18:14:13.401Z,28.90
2024-01-11T18:16:40.181Z,30.90
2024-01-11T18:19:08.906Z,29.02
2024-01-11T18:21:35.844Z,30.52
2024-01-11T18:24:02.542Z,30.40
2024-01-11T18:26:29.255Z,30.88
2024-01-11T18:28:56.130Z,30.77
2024-01-11T18:31:23.890Z,31.52
2024-01-11T18:33:53.287Z,32.95
2024-01-11T18:36:24.591Z,29.77
2024-01-11T18:38:54.220Z,30.67
2024-01-11T18:41:22.299Z,31.13
2024-01-11T18:43:49.156Z,33.55
2024-01-11T18:46:17.405Z,32.40
2024-01-11T18:48:44.136Z,35.70
2024-01-11T18:51:11.000Z,41.00
2024-01-11T18:53:37.803Z,40.40
2024-01-11T18:56:04.832Z,45.40
2024-01-11T18:58:31.698Z,52.33
2024-01-11T19:00:58.505Z,37.75
2024-01-11T19:03:25.492Z,34.05
2024-01-11T19:05:52.715Z,34.60
2024-01-11T19:08:19.670Z,38.17
2024-01-11T19:10:46.349Z,36.40
2024-01-11T19:13:13.029Z,35.33
2024-01-11T19:15:39.797Z,33.90
2024-01-11T19:18:10.265Z,33.20
2024-01-11T19:20:37.316Z,33.00
2024-01-11T19:23:04.559Z,34.78
2024-01-11T19:25:33.366Z,42.70
2024-01-11T19:28:02.330Z,41.05
2024-01-11T19:30:29.834Z,42.07
2024-01-11T19:32:56.574Z,40.83
2024-01-11T19:35:23.360Z,43.15
2024-01-11T19:37:50.521Z,37.10
2024-01-11T19:40:17.293Z,43.88
2024-01-11T19:42:43.960Z,41.23
2024-01-11T19:45:11.180Z,48.08
2024-01-11T19:47:38.609Z,42.05
2024-01-11T19:50:06.615Z,39.47
2024-01-11T19:52:33.397Z,46.40
2024-01-11T19:55:00.074Z,38.20
2024-01-11T19:57:26.980Z,34.85
2024-01-11T19:59:53.823Z,33.55
2024-01-11T20:02:20.564Z,34.45
2024-01-11T20:04:47.249Z,34.22
2024-01-11T20:07:13.991Z,33.30
2024-01-11T20:09:41.964Z,36.00
2024-01-11T20:12:09.896Z,37.63
2024-01-11T20:14:37.415Z,36.55
2024-01-11T20:17:04.600Z,33.10
2024-01-11T20:19:32.110Z,35.97
2024-01-11T20:21:58.949Z,34.13
2024-01-11T20:24:25.676Z,35.80
2024-01-11T20:26:52.571Z,35.42
2024-01-11T20:29:19.666Z,33.95
2024-01-11T20:31:46.894Z,34.87
2024-01-11T20:34:16.212Z,34.25
2024-01-11T20:36:43.416Z,34.38
2024-01-11T20:39:10.172Z,32.90
2024-01-11T20:41:44.096Z,32.80
2024-01-11T20:44:11.728Z,33.43
2024-01-11T20:46:38.561Z,32.50
2024-01-11T20:49:05.286Z,33.38
2024-01-11T20:51:32.066Z,33.60
2024-01-11T20:53:59.304Z,32.15
2024-01-11T20:56:27.562Z,33.20
2024-01-11T20:58:54.332Z,32.80
2024-01-11T21:01:21.096Z,32.67
2024-01-11T21:03:47.903Z,33.08
2024-01-11T21:06:14.961Z,32.72
2024-01-11T21:08:41.804Z,31.87
2024-01-11T21:11:09.204Z,35.35
2024-01-11T21:13:35.998Z,33.60
2024-01-11T21:16:03.832Z,35.75
2024-01-11T21:18:31.089Z,34.60
2024-01-11T21:21:00.428Z,32.77
2024-01-11T21:23:27.160Z,33.78
2024-01-11T21:25:53.925Z,35.92
2024-01-11T21:28:20.620Z,32.63
2024-01-11T21:30:47.317Z,33.70
2024-01-11T21:33:16.672Z,34.80
2024-01-11T21:35:44.151Z,36.53
2024-01-11T21:38:10.952Z,34.53
2024-01-11T21:40:40.786Z,34.42
2024-01-11T21:43:08.765Z,34.88
2024-01-11T21:45:35.454Z,33.27
2024-01-11T21:48:02.181Z,33.72
2024-01-11T21:50:31.957Z,33.83
2024-01-11T21:52:59.186Z,34.70
2024-01-11T21:55:26.122Z,35.33
2024-01-11T21:57:53.090Z,33.27
2024-01-11T22:00:20.133Z,33.40
2024-01-11T22:02:47.041Z,32.78
2024-01-11T22:05:13.826Z,33.38
2024-01-11T22:07:40.492Z,33.78
2024-01-11T22:10:08.093Z,33.53
2024-01-11T22:12:34.833Z,32.97
2024-01-11T22:15:03.268Z,34.15
2024-01-11T22:17:31.327Z,33.20
2024-01-11T22:19:58.157Z,34.25
2024-01-11T22:22:24.893Z,33.60
2024-01-11T22:24:51.495Z,35.15
2024-01-11T22:27:18.159Z,34.58
2024-01-11T22:29:44.858Z,34.30
2024-01-11T22:32:11.536Z,34.55
2024-01-11T22:34:38.278Z,34.93
2024-01-11T22:37:04.948Z,34.30
2024-01-11T22:39:31.555Z,36.28
2024-01-11T22:41:58.190Z,33.03
2024-01-11T22:44:24.825Z,33.95
2024-01-11T22:46:51.525Z,33.73
2024-01-11T22:49:18.111Z,31.80
2024-01-11T22:51:44.696Z,31.98
2024-01-11T22:54:11.417Z,32.30
2024-01-11T22:56:38.737Z,33.05
2024-01-11T22:59:06.362Z,31.13
2024-01-11T23:01:33.618Z,32.90
2024-01-11T23:04:00.301Z,34.50
2024-01-11T23:06:27.275Z,33.50
2024-01-11T23:08:54.049Z,32.83
2024-01-11T23:11:20.884Z,32.80
2024-01-11T23:13:47.625Z,32.50
2024-01-11T23:16:14.763Z,33.22
2024-01-11T23:18:44.339Z,42.33
2024-01-11T23:21:12.105Z,36.90
2024-01-11T23:23:38.838Z,32.43
2024-01-11T23:26:06.518Z,32.78
2024-01-11T23:28:33.148Z,32.20
2024-01-11T23:31:00.037Z,32.83
2024-01-11T23:33:26.923Z,31.88
2024-01-11T23:35:54.881Z,33.20
2024-01-11T23:38:21.659Z,33.55
2024-01-11T23:40:48.402Z,33.22
2024-01-11T23:43:15.198Z,31.15
2024-01-11T23:45:42.492Z,32.90
2024-01-11T23:48:09.309Z,32.60
2024-01-11T23:50:36.177Z,32.65
2024-01-11T23:53:02.921Z,33.15
2024-01-11T23:55:29.620Z,32.00
2024-01-11T23:57:56.327Z,34.05
